sensor_id;sensor_type;location;lat;lon;timestamp;P1;durP1;ratioP1;P2;durP2;ratioP2
3767;SDS011;1899;49.966;7.106;2022-09-03T04:01:23;4.00;;;2.23;;
3767;SDS011;1899;49.966;7.106;2022-09-03T04:03:49;3.10;;;2.13;;
3767;SDS011;1899;49.966;7.106;2022-09-03T04:06:15;2.37;;;2.10;;
3767;SDS011;1899;49.966;7.106;2022-09-03T04:08:42;1.70;;;1.60;;
3767;SDS011;1899;49.966;7.106;2022-09-03T04:11:08;2.17;;;1.77;;
3767;SDS011;1899;49.966;7.106;2022-09-03T04:13:35;2.20;;;1.73;;
3767;SDS011;1899;49.966;7.106;2022-09-03T04:18:26;2.30;;;2.10;;
3767;SDS011;1899;49.966;7.106;2022-09-03T04:20:51;2.00;;;1.83;;
3767;SDS011;1899;49.966;7.106;2022-09-03T04:23:16;2.53;;;1.70;;
3767;SDS011;1899;49.966;7.106;2022-09-03T04:25:42;3.23;;;1.53;;
3767;SDS011;1899;49.966;7.106;2022-09-03T04:28:07;7.57;;;2.97;;
3767;SDS011;1899;49.966;7.106;2022-09-03T04:30:32;2.90;;;1.90;;
3767;SDS011;1899;49.966;7.106;2022-09-03T04:32:58;1.90;;;1.70;;
3767;SDS011;1899;49.966;7.106;2022-09-03T04:35:24;3.93;;;1.77;;
3767;SDS011;1899;49.966;7.106;2022-09-03T04:37:49;1.57;;;1.47;;
3767;SDS011;1899;49.966;7.106;2022-09-03T04:40:15;3.07;;;1.90;;
3767;SDS011;1899;49.966;7.106;2022-09-03T04:42:40;4.33;;;1.90;;
3767;SDS011;1899;49.966;7.106;2022-09-03T04:45:06;1.93;;;1.70;;
3767;SDS011;1899;49.966;7.106;2022-09-03T04:47:32;1.87;;;1.73;;
3767;SDS011;1899;49.966;7.106;2022-09-03T04:49:57;8.37;;;2.70;;
3767;SDS011;1899;49.966;7.106;2022-09-03T04:52:22;2.00;;;1.80;;
3767;SDS011;1899;49.966;7.106;2022-09-03T04:54:48;2.57;;;2.37;;
3767;SDS011;1899;49.966;7.106;2022-09-03T04:57:13;3.30;;;3.00;;
3767;SDS011;1899;49.966;7.106;2022-09-03T04:59:39;3.67;;;2.20;;
3767;SDS011;1899;49.966;7.106;2022-09-03T05:02:05;2.20;;;1.90;;
3767;SDS011;1899;49.966;7.106;2022-09-03T05:04:30;2.90;;;2.63;;
3767;SDS011;1899;49.966;7.106;2022-09-03T05:06:55;2.40;;;2.20;;
3767;SDS011;1899;49.966;7.106;2022-09-03T05:09:21;2.37;;;2.13;;
3767;SDS011;1899;49.966;7.106;2022-09-03T05:11:46;4.60;;;2.57;;
3767;SDS011;1899;49.966;7.106;2022-09-03T05:14:11;2.33;;;1.87;;
3767;SDS011;1899;49.966;7.106;2022-09-03T05:16:36;3.70;;;1.83;;
3767;SDS011;1899;49.966;7.106;2022-09-03T05:19:02;4.23;;;2.40;;
3767;SDS011;1899;49.966;7.106;2022-09-03T05:21:29;3.67;;;2.60;;
3767;SDS011;1899;49.966;7.106;2022-09-03T05:23:55;3.70;;;2.37;;
3767;SDS011;1899;49.966;7.106;2022-09-03T05:26:22;2.20;;;1.93;;
3767;SDS011;1899;49.966;7.106;2022-09-03T05:28:51;2.60;;;2.37;;
3767;SDS011;1899;49.966;7.106;2022-09-03T05:31:19;2.37;;;2.00;;
3767;SDS011;1899;49.966;7.106;2022-09-03T05:33:46;3.10;;;2.10;;
3767;SDS011;1899;49.966;7.106;2022-09-03T05:36:16;3.40;;;2.70;;
3767;SDS011;1899;49.966;7.106;2022-09-03T05:38:42;2.93;;;1.80;;
3767;SDS011;1899;49.966;7.106;2022-09-03T05:41:08;3.90;;;2.13;;
3767;SDS011;1899;49.966;7.106;2022-09-03T05:43:33;1.90;;;1.80;;
3767;SDS011;1899;49.966;7.106;2022-09-03T05:45:59;4.17;;;1.70;;
3767;SDS011;1899;49.966;7.106;2022-09-03T05:48:28;3.40;;;2.93;;
3767;SDS011;1899;49.966;7.106;2022-09-03T05:50:58;2.20;;;1.90;;
3767;SDS011;1899;49.966;7.106;2022-09-03T05:53:23;1.90;;;1.80;;
3767;SDS011;1899;49.966;7.106;2022-09-03T05:55:56;4.73;;;2.20;;
3767;SDS011;1899;49.966;7.106;2022-09-03T05:58:21;1.70;;;1.60;;
3767;SDS011;1899;49.966;7.106;2022-09-03T06:00:46;5.37;;;2.70;;
3767;SDS011;1899;49.966;7.106;2022-09-03T06:03:11;2.03;;;1.93;;
3767;SDS011;1899;49.966;7.106;2022-09-03T06:05:37;2.00;;;1.80;;
3767;SDS011;1899;49.966;7.106;2022-09-03T06:08:02;1.80;;;1.70;;
3767;SDS011;1899;49.966;7.106;2022-09-03T06:10:27;1.60;;;1.50;;
3767;SDS011;1899;49.966;7.106;2022-09-03T06:12:53;2.87;;;2.00;;
3767;SDS011;1899;49.966;7.106;2022-09-03T06:15:19;2.13;;;1.50;;
3767;SDS011;1899;49.966;7.106;2022-09-03T06:17:44;1.87;;;1.70;;
3767;SDS011;1899;49.966;7.106;2022-09-03T06:20:10;2.40;;;2.10;;
3767;SDS011;1899;49.966;7.106;2022-09-03T06:22:35;3.10;;;2.03;;
3767;SDS011;1899;49.966;7.106;2022-09-03T06:25:01;2.37;;;1.80;;
3767;SDS011;1899;49.966;7.106;2022-09-03T06:27:27;1.90;;;1.67;;
3767;SDS011;1899;49.966;7.106;2022-09-03T06:29:52;1.60;;;1.50;;
3767;SDS011;1899;49.966;7.106;2022-09-03T06:32:17;1.60;;;1.50;;
3767;SDS011;1899;49.966;7.106;2022-09-03T06:34:43;2.33;;;2.13;;
3767;SDS011;1899;49.966;7.106;2022-09-03T06:37:08;1.90;;;1.40;;
3767;SDS011;1899;49.966;7.106;2022-09-03T06:39:34;4.13;;;1.90;;
3767;SDS011;1899;49.966;7.106;2022-09-03T06:41:59;2.83;;;1.90;;
3767;SDS011;1899;49.966;7.106;2022-09-03T06:44:24;1.73;;;1.63;;
3767;SDS011;1899;49.966;7.106;2022-09-03T06:46:50;1.73;;;1.50;;
3767;SDS011;1899;49.966;7.106;2022-09-03T06:49:17;1.57;;;1.47;;
3767;SDS011;1899;49.966;7.106;2022-09-03T06:51:43;5.00;;;1.80;;
3767;SDS011;1899;49.966;7.106;2022-09-03T06:54:09;1.40;;;1.20;;
3767;SDS011;1899;49.966;7.106;2022-09-03T06:56:35;1.63;;;1.47;;
3767;SDS011;1899;49.966;7.106;2022-09-03T06:59:06;2.23;;;1.80;;
3767;SDS011;1899;49.966;7.106;2022-09-03T07:01:31;4.13;;;1.43;;
3767;SDS011;1899;49.966;7.106;2022-09-03T07:03:58;2.53;;;2.00;;
3767;SDS011;1899;49.966;7.106;2022-09-03T07:06:25;2.80;;;1.90;;
3767;SDS011;1899;49.966;7.106;2022-09-03T07:08:53;1.63;;;1.53;;
3767;SDS011;1899;49.966;7.106;2022-09-03T07:11:20;2.40;;;1.70;;
3767;SDS011;1899;49.966;7.106;2022-09-03T07:13:49;4.20;;;1.40;;
3767;SDS011;1899;49.966;7.106;2022-09-03T07:16:21;2.00;;;1.83;;
3767;SDS011;1899;49.966;7.106;2022-09-03T07:18:47;1.60;;;1.50;;
3767;SDS011;1899;49.966;7.106;2022-09-03T07:21:17;2.13;;;1.77;;
3767;SDS011;1899;49.966;7.106;2022-09-03T07:23:43;2.40;;;2.00;;
3767;SDS011;1899;49.966;7.106;2022-09-03T07:26:18;3.60;;;1.80;;
3767;SDS011;1899;49.966;7.106;2022-09-03T07:28:44;3.07;;;1.93;;
3767;SDS011;1899;49.966;7.106;2022-09-03T07:31:23;2.60;;;1.73;;
3767;SDS011;1899;49.966;7.106;2022-09-03T07:33:49;1.70;;;1.37;;
3767;SDS011;1899;49.966;7.106;2022-09-03T07:36:15;3.60;;;2.10;;
3767;SDS011;1899;49.966;7.106;2022-09-03T07:38:41;3.77;;;2.03;;
3767;SDS011;1899;49.966;7.106;2022-09-03T07:41:08;2.10;;;1.87;;
3767;SDS011;1899;49.966;7.106;2022-09-03T07:43:35;1.93;;;1.47;;
3767;SDS011;1899;49.966;7.106;2022-09-03T07:46:00;2.17;;;1.97;;
3767;SDS011;1899;49.966;7.106;2022-09-03T07:48:26;3.00;;;1.40;;
3767;SDS011;1899;49.966;7.106;2022-09-03T07:50:52;1.63;;;1.47;;
3767;SDS011;1899;49.966;7.106;2022-09-03T07:53:23;3.03;;;1.73;;
3767;SDS011;1899;49.966;7.106;2022-09-03T07:55:49;2.30;;;1.97;;
3767;SDS011;1899;49.966;7.106;2022-09-03T07:58:14;2.37;;;1.63;;
3767;SDS011;1899;49.966;7.106;2022-09-03T08:00:40;2.40;;;1.70;;
3767;SDS011;1899;49.966;7.106;2022-09-03T08:03:05;7.37;;;1.70;;
3767;SDS011;1899;49.966;7.106;2022-09-03T08:05:33;2.03;;;1.53;;
3767;SDS011;1899;49.966;7.106;2022-09-03T08:07:59;5.33;;;2.00;;
3767;SDS011;1899;49.966;7.106;2022-09-03T08:10:25;1.60;;;1.50;;
3767;SDS011;1899;49.966;7.106;2022-09-03T08:12:54;1.83;;;1.63;;
3767;SDS011;1899;49.966;7.106;2022-09-03T08:15:19;3.43;;;1.80;;
3767;SDS011;1899;49.966;7.106;2022-09-03T08:17:45;3.33;;;1.97;;
3767;SDS011;1899;49.966;7.106;2022-09-03T08:20:10;3.70;;;2.40;;
3767;SDS011;1899;49.966;7.106;2022-09-03T08:22:35;2.43;;;1.80;;
3767;SDS011;1899;49.966;7.106;2022-09-03T08:25:01;2.17;;;1.77;;
3767;SDS011;1899;49.966;7.106;2022-09-03T08:27:26;2.23;;;1.90;;
3767;SDS011;1899;49.966;7.106;2022-09-03T08:29:53;3.90;;;2.00;;
3767;SDS011;1899;49.966;7.106;2022-09-03T08:32:18;2.63;;;1.97;;
3767;SDS011;1899;49.966;7.106;2022-09-03T08:34:43;1.97;;;1.80;;
3767;SDS011;1899;49.966;7.106;2022-09-03T08:37:09;5.23;;;1.90;;
3767;SDS011;1899;49.966;7.106;2022-09-03T08:39:34;1.93;;;1.80;;
3767;SDS011;1899;49.966;7.106;2022-09-03T08:44:29;2.97;;;2.30;;
3767;SDS011;1899;49.966;7.106;2022-09-03T08:49:27;2.20;;;1.77;;
3767;SDS011;1899;49.966;7.106;2022-09-03T08:51:55;1.93;;;1.70;;
3767;SDS011;1899;49.966;7.106;2022-09-03T08:54:23;2.97;;;2.13;;
3767;SDS011;1899;49.966;7.106;2022-09-03T08:56:50;1.70;;;1.60;;
3767;SDS011;1899;49.966;7.106;2022-09-03T08:59:16;3.87;;;1.80;;
3767;SDS011;1899;49.966;7.106;2022-09-03T09:17:07;2.30;;;2.10;;
3767;SDS011;1899;49.966;7.106;2022-09-03T09:19:45;3.50;;;2.00;;
3767;SDS011;1899;49.966;7.106;2022-09-03T09:22:23;2.27;;;1.93;;
3767;SDS011;1899;49.966;7.106;2022-09-03T09:24:50;2.70;;;2.00;;
3767;SDS011;1899;49.966;7.106;2022-09-03T09:27:17;2.00;;;1.90;;
3767;SDS011;1899;49.966;7.106;2022-09-03T09:29:42;3.50;;;2.30;;
3767;SDS011;1899;49.966;7.106;2022-09-03T09:32:10;2.30;;;1.87;;
3767;SDS011;1899;49.966;7.106;2022-09-03T09:34:37;3.30;;;1.70;;
3767;SDS011;1899;49.966;7.106;2022-09-03T09:37:05;3.73;;;2.03;;
3767;SDS011;1899;49.966;7.106;2022-09-03T09:39:31;2.23;;;2.03;;
3767;SDS011;1899;49.966;7.106;2022-09-03T09:42:01;1.93;;;1.80;;
3767;SDS011;1899;49.966;7.106;2022-09-03T09:44:29;3.60;;;2.37;;
3767;SDS011;1899;49.966;7.106;2022-09-03T09:47:01;2.20;;;1.80;;
3767;SDS011;1899;49.966;7.106;2022-09-03T09:49:34;2.07;;;1.90;;
3767;SDS011;1899;49.966;7.106;2022-09-03T09:52:13;2.37;;;2.10;;
3767;SDS011;1899;49.966;7.106;2022-09-03T09:54:40;2.80;;;2.20;;
3767;SDS011;1899;49.966;7.106;2022-09-03T09:57:07;2.03;;;1.83;;
3767;SDS011;1899;49.966;7.106;2022-09-03T09:59:33;1.77;;;1.67;;
3767;SDS011;1899;49.966;7.106;2022-09-03T10:02:09;2.87;;;2.20;;
3767;SDS011;1899;49.966;7.106;2022-09-03T10:04:35;2.37;;;2.17;;
3767;SDS011;1899;49.966;7.106;2022-09-03T10:07:04;3.20;;;2.20;;
3767;SDS011;1899;49.966;7.106;2022-09-03T10:09:40;2.03;;;1.83;;
3767;SDS011;1899;49.966;7.106;2022-09-03T10:12:25;2.63;;;2.43;;
3767;SDS011;1899;49.966;7.106;2022-09-03T10:14:54;2.80;;;2.30;;
3767;SDS011;1899;49.966;7.106;2022-09-03T10:17:34;2.10;;;1.97;;
3767;SDS011;1899;49.966;7.106;2022-09-03T10:20:03;2.53;;;2.33;;
3767;SDS011;1899;49.966;7.106;2022-09-03T10:23:15;2.60;;;2.40;;
3767;SDS011;1899;49.966;7.106;2022-09-03T10:25:45;2.43;;;2.23;;
3767;SDS011;1899;49.966;7.106;2022-09-03T10:28:14;4.00;;;2.43;;
3767;SDS011;1899;49.966;7.106;2022-09-03T10:31:26;2.37;;;2.17;;
3767;SDS011;1899;49.966;7.106;2022-09-03T10:33:29;2.80;;;2.40;;
3767;SDS011;1899;49.966;7.106;2022-09-03T10:36:12;2.13;;;1.93;;
3767;SDS011;1899;49.966;7.106;2022-09-03T10:38:43;2.53;;;2.20;;
3767;SDS011;1899;49.966;7.106;2022-09-03T10:41:26;2.50;;;2.30;;
3767;SDS011;1899;49.966;7.106;2022-09-03T10:46:27;6.67;;;2.40;;
3767;SDS011;1899;49.966;7.106;2022-09-03T10:51:25;2.47;;;2.27;;
3767;SDS011;1899;49.966;7.106;2022-09-03T10:54:04;2.60;;;2.40;;
3767;SDS011;1899;49.966;7.106;2022-09-03T11:02:08;2.43;;;2.30;;
3767;SDS011;1899;49.966;7.106;2022-09-03T11:05:15;2.40;;;2.20;;
3767;SDS011;1899;49.966;7.106;2022-09-03T11:07:34;2.50;;;2.30;;
3767;SDS011;1899;49.966;7.106;2022-09-03T11:12:37;2.90;;;2.70;;
3767;SDS011;1899;49.966;7.106;2022-09-03T11:15:06;3.23;;;2.93;;
3767;SDS011;1899;49.966;7.106;2022-09-03T11:17:38;2.53;;;2.33;;
3767;SDS011;1899;49.966;7.106;2022-09-03T11:20:13;3.10;;;2.40;;
3767;SDS011;1899;49.966;7.106;2022-09-03T11:22:40;2.80;;;2.60;;
3767;SDS011;1899;49.966;7.106;2022-09-03T11:25:07;2.77;;;2.57;;
3767;SDS011;1899;49.966;7.106;2022-09-03T11:30:07;2.10;;;2.00;;
3767;SDS011;1899;49.966;7.106;2022-09-03T11:43:31;3.13;;;2.57;;
3767;SDS011;1899;49.966;7.106;2022-09-03T11:46:08;2.83;;;2.57;;
3767;SDS011;1899;49.966;7.106;2022-09-03T11:51:01;4.80;;;2.83;;
3767;SDS011;1899;49.966;7.106;2022-09-03T11:53:35;2.90;;;2.70;;
3767;SDS011;1899;49.966;7.106;2022-09-03T11:56:11;2.70;;;2.50;;
3767;SDS011;1899;49.966;7.106;2022-09-03T11:58:39;2.87;;;2.67;;
3767;SDS011;1899;49.966;7.106;2022-09-03T12:01:10;3.00;;;2.80;;
3767;SDS011;1899;49.966;7.106;2022-09-03T12:03:58;3.90;;;3.00;;
3767;SDS011;1899;49.966;7.106;2022-09-03T12:13:53;2.90;;;2.70;;
3767;SDS011;1899;49.966;7.106;2022-09-03T12:18:45;3.03;;;2.57;;
3767;SDS011;1899;49.966;7.106;2022-09-03T12:21:11;4.10;;;2.20;;
3767;SDS011;1899;49.966;7.106;2022-09-03T12:23:39;2.47;;;2.27;;
3767;SDS011;1899;49.966;7.106;2022-09-03T12:26:16;2.90;;;2.60;;
3767;SDS011;1899;49.966;7.106;2022-09-03T12:28:43;3.33;;;2.90;;
3767;SDS011;1899;49.966;7.106;2022-09-03T12:31:13;2.77;;;2.50;;
3767;SDS011;1899;49.966;7.106;2022-09-03T12:33:46;3.13;;;2.90;;
3767;SDS011;1899;49.966;7.106;2022-09-03T12:36:12;2.80;;;2.60;;
3767;SDS011;1899;49.966;7.106;2022-09-03T12:38:37;3.80;;;3.00;;
3767;SDS011;1899;49.966;7.106;2022-09-03T12:41:03;3.33;;;3.03;;
3767;SDS011;1899;49.966;7.106;2022-09-03T12:43:29;2.73;;;2.40;;
3767;SDS011;1899;49.966;7.106;2022-09-03T12:45:54;3.47;;;3.00;;
3767;SDS011;1899;49.966;7.106;2022-09-03T12:48:19;4.77;;;2.80;;
3767;SDS011;1899;49.966;7.106;2022-09-03T12:50:46;4.70;;;2.50;;
3767;SDS011;1899;49.966;7.106;2022-09-03T12:53:13;2.83;;;2.63;;
3767;SDS011;1899;49.966;7.106;2022-09-03T12:58:13;3.10;;;2.80;;
3767;SDS011;1899;49.966;7.106;2022-09-03T13:00:45;4.03;;;3.17;;
3767;SDS011;1899;49.966;7.106;2022-09-03T13:03:12;3.10;;;2.80;;
3767;SDS011;1899;49.966;7.106;2022-09-03T13:05:44;3.50;;;2.97;;
3767;SDS011;1899;49.966;7.106;2022-09-03T13:08:14;5.20;;;3.03;;
3767;SDS011;1899;49.966;7.106;2022-09-03T13:10:42;4.77;;;2.67;;
3767;SDS011;1899;49.966;7.106;2022-09-03T13:13:47;3.37;;;3.00;;
3767;SDS011;1899;49.966;7.106;2022-09-03T13:26:20;3.60;;;3.10;;
3767;SDS011;1899;49.966;7.106;2022-09-03T13:29:00;4.37;;;3.10;;
3767;SDS011;1899;49.966;7.106;2022-09-03T13:31:40;3.77;;;3.10;;
3767;SDS011;1899;49.966;7.106;2022-09-03T13:34:41;5.10;;;3.80;;
3767;SDS011;1899;49.966;7.106;2022-09-03T13:39:47;4.10;;;3.80;;
3767;SDS011;1899;49.966;7.106;2022-09-03T13:42:15;5.13;;;3.70;;
3767;SDS011;1899;49.966;7.106;2022-09-03T13:44:54;4.40;;;4.10;;
3767;SDS011;1899;49.966;7.106;2022-09-03T13:49:50;6.87;;;5.07;;
3767;SDS011;1899;49.966;7.106;2022-09-03T13:52:37;4.93;;;4.53;;
3767;SDS011;1899;49.966;7.106;2022-09-03T13:57:58;5.63;;;5.13;;
3767;SDS011;1899;49.966;7.106;2022-09-03T14:00:29;6.37;;;5.30;;
3767;SDS011;1899;49.966;7.106;2022-09-03T14:03:15;7.10;;;6.53;;
3767;SDS011;1899;49.966;7.106;2022-09-03T14:08:33;6.10;;;5.20;;
3767;SDS011;1899;49.966;7.106;2022-09-03T14:21:10;5.30;;;4.90;;
3767;SDS011;1899;49.966;7.106;2022-09-03T14:26:26;6.03;;;5.43;;
3767;SDS011;1899;49.966;7.106;2022-09-03T14:29:01;7.20;;;5.67;;
3767;SDS011;1899;49.966;7.106;2022-09-03T14:31:29;5.93;;;5.43;;
3767;SDS011;1899;49.966;7.106;2022-09-03T14:34:07;6.87;;;5.23;;
3767;SDS011;1899;49.966;7.106;2022-09-03T14:44:34;6.47;;;4.03;;
3767;SDS011;1899;49.966;7.106;2022-09-03T14:49:34;8.00;;;3.40;;
3767;SDS011;1899;49.966;7.106;2022-09-03T14:52:22;4.00;;;3.60;;
3767;SDS011;1899;49.966;7.106;2022-09-03T14:57:59;3.43;;;3.10;;
3767;SDS011;1899;49.966;7.106;2022-09-03T15:02:59;4.10;;;3.27;;
3767;SDS011;1899;49.966;7.106;2022-09-03T15:10:54;4.20;;;3.43;;
3767;SDS011;1899;49.966;7.106;2022-09-03T15:13:26;3.20;;;2.90;;
3767;SDS011;1899;49.966;7.106;2022-09-03T15:28:58;3.93;;;3.63;;
3767;SDS011;1899;49.966;7.106;2022-09-03T15:31:38;6.13;;;3.50;;
3767;SDS011;1899;49.966;7.106;2022-09-03T15:36:37;3.60;;;3.30;;
3767;SDS011;1899;49.966;7.106;2022-09-03T15:39:26;5.07;;;3.63;;
3767;SDS011;1899;49.966;7.106;2022-09-03T15:41:51;4.93;;;3.87;;
3767;SDS011;1899;49.966;7.106;2022-09-03T15:44:21;4.17;;;3.87;;
3767;SDS011;1899;49.966;7.106;2022-09-03T15:46:58;5.03;;;4.17;;
3767;SDS011;1899;49.966;7.106;2022-09-03T15:49:33;4.30;;;4.00;;
3767;SDS011;1899;49.966;7.106;2022-09-03T15:54:48;4.23;;;3.80;;
3767;SDS011;1899;49.966;7.106;2022-09-03T16:12:44;3.87;;;3.57;;
3767;SDS011;1899;49.966;7.106;2022-09-03T16:15:13;4.10;;;3.50;;
3767;SDS011;1899;49.966;7.106;2022-09-03T16:22:55;5.13;;;3.03;;
3767;SDS011;1899;49.966;7.106;2022-09-03T16:25:22;4.17;;;3.73;;
3767;SDS011;1899;49.966;7.106;2022-09-03T16:27:53;3.77;;;3.57;;
3767;SDS011;1899;49.966;7.106;2022-09-03T16:30:29;3.57;;;3.37;;
3767;SDS011;1899;49.966;7.106;2022-09-03T16:33:11;3.43;;;3.17;;
3767;SDS011;1899;49.966;7.106;2022-09-03T16:38:21;3.97;;;3.67;;
3767;SDS011;1899;49.966;7.106;2022-09-03T16:40:52;4.17;;;3.87;;
3767;SDS011;1899;49.966;7.106;2022-09-03T16:46:02;3.50;;;3.20;;
3767;SDS011;1899;49.966;7.106;2022-09-03T16:48:45;2.83;;;2.53;;
3767;SDS011;1899;49.966;7.106;2022-09-03T16:54:05;3.50;;;2.60;;
3767;SDS011;1899;49.966;7.106;2022-09-03T17:01:47;2.93;;;2.73;;
3767;SDS011;1899;49.966;7.106;2022-09-03T17:07:06;5.70;;;4.07;;
3767;SDS011;1899;49.966;7.106;2022-09-03T17:09:36;7.93;;;3.60;;
3767;SDS011;1899;49.966;7.106;2022-09-03T17:25:30;2.80;;;2.60;;
3767;SDS011;1899;49.966;7.106;2022-09-03T17:30:47;3.00;;;2.80;;
3767;SDS011;1899;49.966;7.106;2022-09-03T17:33:25;2.53;;;2.37;;
3767;SDS011;1899;49.966;7.106;2022-09-03T17:36:05;3.43;;;3.13;;
3767;SDS011;1899;49.966;7.106;2022-09-03T17:44:01;3.00;;;2.80;;
3767;SDS011;1899;49.966;7.106;2022-09-03T17:48:55;2.50;;;2.00;;
3767;SDS011;1899;49.966;7.106;2022-09-03T17:51:24;3.60;;;2.73;;
3767;SDS011;1899;49.966;7.106;2022-09-03T17:56:26;2.23;;;2.03;;
3767;SDS011;1899;49.966;7.106;2022-09-03T18:01:38;2.70;;;2.50;;
3767;SDS011;1899;49.966;7.106;2022-09-03T18:09:06;3.60;;;3.30;;
3767;SDS011;1899;49.966;7.106;2022-09-03T18:11:48;2.80;;;2.60;;
3767;SDS011;1899;49.966;7.106;2022-09-03T18:21:56;2.87;;;2.30;;
3767;SDS011;1899;49.966;7.106;2022-09-03T18:24:42;1.90;;;1.80;;
3767;SDS011;1899;49.966;7.106;2022-09-03T18:27:39;2.50;;;1.90;;
3767;SDS011;1899;49.966;7.106;2022-09-03T18:30:24;2.80;;;2.37;;
3767;SDS011;1899;49.966;7.106;2022-09-03T18:33:08;2.07;;;1.87;;
3767;SDS011;1899;49.966;7.106;2022-09-03T18:35:51;5.47;;;2.23;;
3767;SDS011;1899;49.966;7.106;2022-09-03T18:38:38;2.60;;;2.40;;
3767;SDS011;1899;49.966;7.106;2022-09-03T18:46:58;3.03;;;2.47;;
3767;SDS011;1899;49.966;7.106;2022-09-03T18:56:31;2.20;;;2.10;;
3767;SDS011;1899;49.966;7.106;2022-09-03T18:59:01;3.10;;;2.33;;
3767;SDS011;1899;49.966;7.106;2022-09-03T19:01:47;2.80;;;2.50;;
3767;SDS011;1899;49.966;7.106;2022-09-03T19:07:27;3.43;;;2.70;;
3767;SDS011;1899;49.966;7.106;2022-09-03T19:10:25;3.27;;;2.70;;
3767;SDS011;1899;49.966;7.106;2022-09-03T19:13:23;4.00;;;3.20;;
3767;SDS011;1899;49.966;7.106;2022-09-03T19:16:12;3.20;;;2.90;;
3767;SDS011;1899;49.966;7.106;2022-09-03T19:19:03;3.10;;;2.80;;
3767;SDS011;1899;49.966;7.106;2022-09-03T19:21:58;3.70;;;3.40;;
3767;SDS011;1899;49.966;7.106;2022-09-03T19:24:47;6.30;;;3.17;;
3767;SDS011;1899;49.966;7.106;2022-09-03T19:36:28;3.70;;;3.40;;
3767;SDS011;1899;49.966;7.106;2022-09-03T19:45:07;2.90;;;2.70;;
3767;SDS011;1899;49.966;7.106;2022-09-03T19:48:07;3.10;;;2.90;;
3767;SDS011;1899;49.966;7.106;2022-09-03T19:50:59;4.10;;;3.63;;
3767;SDS011;1899;49.966;7.106;2022-09-03T19:53:47;4.03;;;3.70;;
3767;SDS011;1899;49.966;7.106;2022-09-03T19:56:32;3.77;;;3.47;;
3767;SDS011;1899;49.966;7.106;2022-09-03T19:59:18;4.77;;;3.60;;
